createdAt,value
2023-01-12T00:02:19.083Z,3.86
2023-01-12T00:04:47.367Z,3.88
2023-01-12T00:07:16.262Z,3.89
2023-01-12T00:09:44.568Z,3.90
2023-01-12T00:12:12.788Z,3.90
2023-01-12T00:14:41.004Z,3.91
2023-01-12T00:17:09.396Z,3.92
2023-01-12T00:19:38.952Z,3.92
2023-01-12T00:22:12.216Z,3.94
2023-01-12T00:24:41.529Z,3.95
2023-01-12T00:27:14.659Z,3.97
2023-01-12T00:29:42.822Z,4.00
2023-01-12T00:32:15.156Z,4.02
2023-01-12T00:34:43.507Z,4.04
2023-01-12T00:37:11.707Z,4.06
2023-01-12T00:39:42.997Z,4.08
2023-01-12T00:42:32.160Z,4.10
2023-01-12T00:45:18.953Z,4.11
2023-01-12T00:47:47.128Z,4.11
2023-01-12T00:50:16.536Z,4.12
2023-01-12T00:52:45.843Z,4.12
2023-01-12T00:55:14.020Z,4.13
2023-01-12T00:57:41.957Z,4.14
2023-01-12T01:00:10.139Z,4.15
2023-01-12T01:02:38.488Z,4.18
2023-01-12T01:05:06.642Z,4.20
2023-01-12T01:07:35.047Z,4.22
2023-01-12T01:10:04.154Z,4.24
2023-01-12T01:12:32.901Z,4.26
2023-01-12T01:15:00.789Z,4.27
2023-01-12T01:17:29.353Z,4.28
2023-01-12T01:19:57.542Z,4.29
2023-01-12T01:22:25.503Z,4.29
2023-01-12T01:24:53.677Z,4.28
2023-01-12T01:27:21.923Z,4.28
2023-01-12T01:29:49.831Z,4.28
2023-01-12T01:32:17.995Z,4.29
2023-01-12T01:34:47.184Z,4.31
2023-01-12T01:37:15.121Z,4.32
2023-01-12T01:39:43.302Z,4.34
2023-01-12T01:42:28.153Z,4.36
2023-01-12T01:44:57.944Z,4.38
2023-01-12T01:47:28.312Z,4.39
2023-01-12T01:49:58.308Z,4.40
2023-01-12T01:52:29.976Z,4.41
2023-01-12T01:55:11.377Z,4.43
2023-01-12T01:57:45.277Z,4.44
2023-01-12T02:00:13.872Z,4.44
2023-01-12T02:06:14.141Z,4.51
2023-01-12T02:08:54.953Z,4.47
2023-01-12T02:11:42.154Z,4.45
2023-01-12T02:14:29.547Z,4.44
2023-01-12T02:17:00.364Z,4.41
2023-01-12T02:19:43.622Z,4.41
2023-01-12T02:22:30.156Z,4.39
2023-01-12T02:25:13.314Z,4.41
2023-01-12T02:27:44.004Z,4.42
2023-01-12T02:30:30.445Z,4.44
2023-01-12T02:33:09.877Z,4.47
2023-01-12T02:35:50.706Z,4.50
2023-01-12T02:38:21.891Z,4.51
2023-01-12T02:40:54.921Z,4.53
2023-01-12T02:43:30.391Z,4.54
2023-01-12T02:46:17.704Z,4.56
2023-01-12T02:48:51.697Z,4.61
2023-01-12T02:51:25.096Z,4.64
2023-01-12T02:53:55.425Z,4.64
2023-01-12T02:56:38.405Z,4.65
2023-01-12T02:59:11.258Z,4.65
2023-01-12T03:01:39.910Z,4.64
2023-01-12T03:04:09.198Z,4.64
2023-01-12T03:06:55.989Z,4.65
2023-01-12T03:09:44.383Z,4.67
2023-01-12T03:12:20.650Z,4.69
2023-01-12T03:14:50.989Z,4.72
2023-01-12T03:17:26.458Z,4.73
2023-01-12T03:19:56.996Z,4.74
2023-01-12T03:22:24.999Z,4.75
2023-01-12T03:24:59.361Z,4.76
2023-01-12T03:27:33.518Z,4.77
2023-01-12T03:30:04.201Z,4.78
2023-01-12T03:32:32.481Z,4.78
2023-01-12T03:35:00.773Z,4.78
2023-01-12T03:37:37.582Z,4.77
2023-01-12T03:40:19.208Z,4.78
2023-01-12T03:43:04.551Z,4.79
2023-01-12T03:45:32.571Z,4.80
2023-01-12T03:48:03.999Z,4.80
2023-01-12T03:50:38.879Z,4.81
2023-01-12T03:53:08.636Z,4.83
2023-01-12T03:55:37.856Z,4.84
2023-01-12T03:58:06.088Z,4.87
2023-01-12T04:05:51.990Z,4.93
2023-01-12T04:08:20.812Z,4.92
2023-01-12T04:10:48.718Z,4.92
2023-01-12T04:13:16.932Z,4.90
2023-01-12T04:15:47.011Z,4.89
2023-01-12T04:18:14.919Z,4.87
2023-01-12T04:20:43.236Z,4.88
2023-01-12T04:23:11.286Z,4.87
2023-01-12T04:25:39.346Z,4.88
2023-01-12T04:28:07.440Z,4.89
2023-01-12T04:30:35.439Z,4.91
2023-01-12T04:33:06.550Z,4.93
2023-01-12T04:35:34.739Z,4.93
2023-01-12T04:38:06.754Z,4.95
2023-01-12T04:40:34.668Z,4.97
2023-01-12T04:43:07.911Z,5.01
2023-01-12T04:45:38.236Z,5.03
2023-01-12T04:48:07.927Z,5.04
2023-01-12T04:50:36.081Z,5.06
2023-01-12T04:53:05.710Z,5.07
2023-01-12T04:55:35.529Z,5.09
2023-01-12T04:58:03.949Z,5.11
2023-01-12T05:00:32.017Z,5.13
2023-01-12T05:03:02.600Z,5.15
2023-01-12T05:05:31.349Z,5.16
2023-01-12T05:08:18.885Z,5.17
2023-01-12T05:11:05.056Z,5.17
2023-01-12T05:13:33.128Z,5.18
2023-01-12T05:16:08.320Z,5.18
2023-01-12T05:18:36.541Z,5.19
2023-01-12T05:21:04.693Z,5.19
2023-01-12T05:23:32.762Z,5.20
2023-01-12T05:26:01.373Z,5.20
2023-01-12T05:28:30.033Z,5.21
2023-01-12T05:31:06.012Z,5.21
2023-01-12T05:33:34.711Z,5.21
2023-01-12T05:36:10.412Z,5.20
2023-01-12T05:38:38.631Z,5.20
2023-01-12T05:41:15.812Z,5.19
2023-01-12T05:43:53.239Z,5.19
2023-01-12T05:46:22.919Z,5.19
2023-01-12T05:48:51.917Z,5.18
2023-01-12T05:51:19.968Z,5.17
2023-01-12T05:53:48.041Z,5.17
2023-01-12T05:56:25.876Z,5.16
2023-01-12T05:58:58.825Z,5.16
2023-01-12T06:01:28.125Z,5.14
2023-01-12T06:03:57.215Z,5.14
2023-01-12T06:06:26.252Z,5.12
2023-01-12T06:08:54.580Z,5.09
2023-01-12T06:11:41.709Z,5.05
2023-01-12T06:14:10.107Z,5.01
2023-01-12T06:16:39.273Z,4.96
2023-01-12T06:19:07.205Z,4.92
2023-01-12T06:21:35.568Z,4.89
2023-01-12T06:24:03.587Z,4.85
2023-01-12T06:26:31.634Z,4.82
2023-01-12T06:28:59.928Z,4.80
2023-01-12T06:31:27.926Z,4.77
2023-01-12T06:33:56.059Z,4.77
2023-01-12T06:36:24.796Z,4.75
2023-01-12T06:38:52.819Z,4.74
2023-01-12T06:41:39.863Z,4.71
2023-01-12T06:44:08.014Z,4.68
2023-01-12T06:46:35.947Z,4.66
2023-01-12T06:49:04.053Z,4.62
2023-01-12T06:51:32.225Z,4.57
2023-01-12T06:54:01.447Z,4.55
2023-01-12T06:56:29.545Z,4.51
2023-01-12T06:58:57.766Z,4.48
2023-01-12T07:01:27.208Z,4.45
2023-01-12T07:03:55.658Z,4.42
2023-01-12T07:06:23.754Z,4.40
2023-01-12T07:08:51.895Z,4.38
2023-01-12T07:11:19.858Z,4.36
2023-01-12T07:13:48.305Z,4.35
2023-01-12T07:16:16.288Z,4.33
2023-01-12T07:18:46.571Z,4.30
2023-01-12T07:21:16.828Z,4.28
2023-01-12T07:23:44.816Z,4.27
2023-01-12T07:26:12.928Z,4.26
2023-01-12T07:28:41.212Z,4.24
2023-01-12T07:31:09.406Z,4.22
2023-01-12T07:33:38.642Z,4.19
2023-01-12T07:36:06.947Z,4.18
2023-01-12T07:38:34.977Z,4.17
2023-01-12T07:41:03.855Z,4.16
2023-01-12T07:43:33.737Z,4.17
2023-01-12T07:46:01.951Z,4.18
2023-01-12T07:48:30.950Z,4.17
2023-01-12T07:50:59.334Z,4.16
2023-01-12T07:53:27.236Z,4.21
2023-01-12T07:55:55.212Z,4.27
2023-01-12T07:58:23.592Z,4.33
2023-01-12T08:00:51.478Z,4.40
2023-01-12T08:03:19.570Z,4.49
2023-01-12T08:05:48.235Z,4.57
2023-01-12T08:08:16.233Z,4.66
2023-01-12T08:16:50.054Z,4.99
2023-01-12T08:19:22.309Z,5.07
2023-01-12T08:21:56.908Z,5.16
2023-01-12T08:24:27.793Z,5.20
2023-01-12T08:26:58.542Z,5.22
2023-01-12T08:29:32.023Z,5.23
2023-01-12T08:32:04.495Z,5.21
2023-01-12T08:34:34.420Z,5.19
2023-01-12T08:37:05.893Z,5.15
2023-01-12T08:39:35.438Z,5.13
2023-01-12T08:42:03.630Z,5.13
2023-01-12T08:44:36.001Z,5.15
2023-01-12T08:47:04.907Z,5.16
2023-01-12T08:49:33.668Z,5.19
2023-01-12T08:52:01.746Z,5.20
2023-01-12T08:54:29.882Z,5.20
2023-01-12T08:56:58.042Z,5.19
2023-01-12T08:59:26.071Z,5.17
2023-01-12T09:01:54.218Z,5.20
2023-01-12T09:04:22.326Z,5.26
2023-01-12T09:06:50.337Z,5.32
2023-01-12T09:09:20.125Z,5.39
2023-01-12T09:11:48.999Z,5.46
2023-01-12T09:14:17.335Z,5.54
2023-01-12T09:16:45.632Z,5.63
2023-01-12T09:19:13.889Z,5.72
2023-01-12T09:21:42.850Z,5.81
2023-01-12T09:24:11.934Z,5.89
2023-01-12T09:26:40.915Z,5.95
2023-01-12T09:29:10.585Z,6.03
2023-01-12T09:31:40.076Z,6.08
2023-01-12T09:34:08.245Z,6.13
2023-01-12T09:36:37.385Z,6.17
2023-01-12T09:39:09.891Z,6.22
2023-01-12T09:41:58.064Z,6.27
2023-01-12T09:44:44.851Z,6.36
2023-01-12T09:47:22.285Z,6.43
2023-01-12T09:50:08.042Z,6.49
2023-01-12T09:52:49.123Z,6.54
2023-01-12T09:55:21.472Z,6.58
2023-01-12T09:57:55.557Z,6.59
2023-01-12T10:00:24.334Z,6.58
2023-01-12T10:02:55.296Z,6.59
2023-01-12T10:05:39.780Z,6.62
2023-01-12T10:08:27.580Z,6.64
2023-01-12T10:11:02.364Z,6.61
2023-01-12T10:13:41.894Z,6.60
2023-01-12T10:16:15.457Z,6.59
2023-01-12T10:18:47.475Z,6.54
2023-01-12T10:21:15.733Z,6.54
2023-01-12T10:23:44.517Z,6.48
2023-01-12T10:26:22.013Z,6.44
2023-01-12T10:28:52.760Z,6.40
2023-01-12T10:34:07.655Z,6.45
2023-01-12T10:36:37.496Z,6.49
2023-01-12T10:39:23.456Z,6.51
2023-01-12T10:42:31.497Z,6.50
2023-01-12T10:45:16.955Z,6.47
2023-01-12T10:47:46.528Z,6.43
2023-01-12T10:50:25.515Z,6.42
2023-01-12T10:52:56.215Z,6.39
2023-01-12T10:55:24.318Z,6.38
2023-01-12T10:57:52.748Z,6.35
2023-01-12T11:00:24.769Z,6.38
2023-01-12T11:02:54.416Z,6.39
2023-01-12T11:05:34.025Z,6.40
2023-01-12T11:08:02.742Z,6.41
2023-01-12T11:10:32.486Z,6.41
2023-01-12T11:13:05.029Z,6.42
2023-01-12T11:15:39.170Z,6.44
2023-01-12T11:18:16.669Z,6.51
2023-01-12T11:20:54.555Z,6.58
2023-01-12T11:23:50.191Z,6.67
2023-01-12T11:26:20.993Z,6.76
2023-01-12T11:42:26.049Z,7.09
2023-01-12T11:45:03.406Z,7.10
2023-01-12T11:47:42.749Z,7.14
2023-01-12T11:50:20.571Z,7.13
2023-01-12T11:52:48.689Z,7.12
2023-01-12T11:55:21.315Z,7.11
2023-01-12T11:58:03.936Z,7.13
2023-01-12T12:00:37.354Z,7.12
2023-01-12T12:03:34.845Z,7.11
2023-01-12T12:06:13.833Z,7.11
2023-01-12T12:08:41.860Z,7.09
2023-01-12T12:11:19.593Z,7.09
2023-01-12T12:14:01.022Z,7.10
2023-01-12T12:16:46.362Z,7.12
2023-01-12T12:19:33.540Z,7.14
2023-01-12T12:22:10.647Z,7.16
2023-01-12T12:24:57.039Z,7.16
2023-01-12T12:27:34.627Z,7.17
2023-01-12T12:30:05.631Z,7.16
2023-01-12T12:32:52.749Z,7.15
2023-01-12T12:35:33.019Z,7.11
2023-01-12T12:38:07.180Z,7.07
2023-01-12T12:41:06.916Z,7.06
2023-01-12T12:43:55.123Z,7.07
2023-01-12T12:46:41.010Z,7.09
2023-01-12T12:49:12.193Z,7.11
2023-01-12T12:51:41.804Z,7.14
2023-01-12T12:54:15.771Z,7.14
2023-01-12T12:56:44.565Z,7.12
2023-01-12T12:59:31.145Z,7.12
2023-01-12T13:02:01.250Z,7.11
2023-01-12T13:04:42.431Z,7.09
2023-01-12T13:07:14.679Z,7.07
2023-01-12T13:09:43.288Z,7.05
2023-01-12T13:12:19.716Z,7.03
2023-01-12T13:15:07.016Z,7.01
2023-01-12T13:17:35.204Z,6.95
2023-01-12T13:20:16.595Z,6.92
2023-01-12T13:22:49.415Z,6.87
2023-01-12T13:25:19.534Z,6.82
2023-01-12T13:27:49.617Z,6.78
2023-01-12T13:30:23.810Z,6.75
2023-01-12T13:33:10.272Z,6.71
2023-01-12T13:35:40.420Z,6.65
2023-01-12T13:38:23.655Z,6.62
2023-01-12T13:40:55.933Z,6.60
2023-01-12T13:43:27.485Z,6.59
2023-01-12T13:45:55.759Z,6.59
2023-01-12T13:48:24.978Z,6.58
2023-01-12T13:50:58.516Z,6.56
2023-01-12T13:53:28.706Z,6.53
2023-01-12T13:55:58.622Z,6.53
2023-01-12T13:58:27.692Z,6.50
2023-01-12T14:00:57.215Z,6.47
2023-01-12T14:03:44.985Z,6.45
2023-01-12T14:06:34.199Z,6.43
2023-01-12T14:09:12.538Z,6.43
2023-01-12T14:11:58.932Z,6.42
2023-01-12T14:14:55.718Z,6.41
2023-01-12T14:17:46.887Z,6.38
2023-01-12T14:20:20.175Z,6.34
2023-01-12T14:22:48.579Z,6.31
2023-01-12T14:25:21.608Z,6.27
2023-01-12T14:27:53.620Z,6.22
2023-01-12T14:30:23.765Z,6.19
2023-01-12T14:32:52.125Z,6.15
2023-01-12T14:35:21.541Z,6.10
2023-01-12T14:38:12.383Z,6.06
2023-01-12T14:40:40.629Z,6.02
2023-01-12T14:43:33.377Z,5.99
2023-01-12T14:46:21.201Z,5.96
2023-01-12T14:48:55.380Z,5.92
2023-01-12T14:51:35.888Z,5.88
2023-01-12T14:54:07.018Z,5.83
2023-01-12T14:56:43.216Z,5.77
2023-01-12T14:59:15.505Z,5.71
2023-01-12T15:01:43.802Z,5.66
2023-01-12T15:04:17.089Z,5.61
2023-01-12T15:06:46.050Z,5.58
2023-01-12T15:09:28.473Z,5.56
2023-01-12T15:11:56.777Z,5.53
2023-01-12T15:14:27.196Z,5.52
2023-01-12T15:17:33.883Z,5.49
2023-01-12T15:20:21.073Z,5.45
2023-01-12T15:23:07.536Z,5.40
2023-01-12T15:25:39.304Z,5.34
2023-01-12T15:28:07.574Z,5.28
2023-01-12T15:30:38.059Z,5.23
2023-01-12T15:33:06.620Z,5.20
2023-01-12T15:35:46.056Z,5.17
2023-01-12T15:38:16.301Z,5.15
2023-01-12T15:40:46.707Z,5.13
2023-01-12T15:43:15.783Z,5.10
2023-01-12T15:45:47.647Z,5.08
2023-01-12T15:48:15.586Z,5.06
2023-01-12T15:50:45.306Z,5.04
2023-01-12T15:53:20.435Z,5.01
2023-01-12T15:55:48.920Z,4.97
2023-01-12T15:58:19.580Z,4.95
2023-01-12T16:00:47.974Z,4.92
2023-01-12T16:03:49.100Z,4.90
2023-01-12T16:06:04.600Z,4.87
2023-01-12T16:08:32.745Z,4.85
2023-01-12T16:11:09.833Z,4.84
2023-01-12T16:13:38.168Z,4.83
2023-01-12T16:16:06.470Z,4.80
2023-01-12T16:18:35.468Z,4.78
2023-01-12T16:21:04.462Z,4.77
2023-01-12T16:23:33.009Z,4.75
2023-01-12T16:26:01.784Z,4.75
2023-01-12T16:28:30.344Z,4.75
2023-01-12T16:30:58.588Z,4.76
2023-01-12T16:33:26.965Z,4.77
2023-01-12T16:35:55.432Z,4.80
2023-01-12T16:38:23.651Z,4.81
2023-01-12T16:40:51.783Z,4.80
2023-01-12T16:43:21.122Z,4.79
2023-01-12T16:45:49.116Z,4.78
2023-01-12T16:48:18.015Z,4.76
2023-01-12T16:50:46.417Z,4.73
2023-01-12T16:53:14.374Z,4.71
2023-01-12T16:55:42.482Z,4.69
2023-01-12T16:58:10.836Z,4.68
2023-01-12T17:00:38.915Z,4.67
2023-01-12T17:03:07.924Z,4.65
2023-01-12T17:05:39.758Z,4.63
2023-01-12T17:08:08.810Z,4.60
2023-01-12T17:10:37.160Z,4.57
2023-01-12T17:13:05.357Z,4.52
2023-01-12T17:15:33.633Z,4.50
2023-01-12T17:18:01.930Z,4.45
2023-01-12T17:20:30.274Z,4.41
2023-01-12T17:22:59.491Z,4.39
2023-01-12T17:25:27.989Z,4.37
2023-01-12T17:27:56.172Z,4.37
2023-01-12T17:30:24.395Z,4.37
2023-01-12T17:32:52.990Z,4.39
2023-01-12T17:35:21.029Z,4.39
2023-01-12T17:37:49.155Z,4.40
2023-01-12T17:40:17.303Z,4.40
2023-01-12T17:43:07.769Z,4.39
2023-01-12T17:45:41.853Z,4.39
2023-01-12T17:48:11.949Z,4.40
2023-01-12T17:50:40.610Z,4.41
2023-01-12T17:53:09.534Z,4.41
2023-01-12T17:55:47.482Z,4.42
2023-01-12T17:58:18.520Z,4.43
2023-01-12T18:00:46.704Z,4.45
2023-01-12T18:03:14.742Z,4.47
2023-01-12T18:05:47.091Z,4.50
2023-01-12T18:08:15.137Z,4.51
2023-01-12T18:10:43.045Z,4.54
2023-01-12T18:13:12.862Z,4.57
2023-01-12T18:15:42.271Z,4.61
2023-01-12T18:18:10.270Z,4.63
2023-01-12T18:20:38.268Z,4.66
2023-01-12T18:23:06.379Z,4.67
2023-01-12T18:25:35.747Z,4.70
2023-01-12T18:28:05.266Z,4.72
2023-01-12T18:30:33.314Z,4.74
2023-01-12T18:33:01.213Z,4.74
2023-01-12T18:35:29.563Z,4.76
2023-01-12T18:37:57.659Z,4.78
2023-01-12T18:40:25.572Z,4.79
2023-01-12T18:42:54.792Z,4.81
2023-01-12T18:45:26.020Z,4.84
2023-01-12T18:48:12.713Z,4.85
2023-01-12T18:50:59.538Z,4.84
2023-01-12T18:53:32.687Z,4.84
2023-01-12T18:56:05.653Z,4.82
2023-01-12T18:58:34.846Z,4.81
2023-01-12T19:01:07.125Z,4.80
2023-01-12T19:03:38.273Z,4.80
2023-01-12T19:06:24.390Z,4.80
2023-01-12T19:09:10.813Z,4.80
2023-01-12T19:11:39.831Z,4.81
2023-01-12T19:14:26.473Z,4.81
2023-01-12T19:17:13.269Z,4.81
2023-01-12T19:19:41.374Z,4.80
2023-01-12T19:22:28.477Z,4.77
2023-01-12T19:25:15.207Z,4.76
2023-01-12T19:28:02.489Z,4.74
2023-01-12T19:30:30.958Z,4.73
2023-01-12T19:32:59.681Z,4.73
2023-01-12T19:35:27.947Z,4.72
2023-01-12T19:37:56.055Z,4.73
2023-01-12T19:40:34.515Z,4.74
2023-01-12T19:43:14.085Z,4.71
2023-01-12T19:45:43.576Z,4.67
2023-01-12T19:48:12.325Z,4.64
2023-01-12T19:50:40.731Z,4.62
2023-01-12T19:53:11.908Z,4.62
2023-01-12T19:55:41.299Z,4.61
2023-01-12T19:58:09.587Z,4.60
2023-01-12T20:00:43.388Z,4.59
2023-01-12T20:03:12.401Z,4.60
2023-01-12T20:05:41.503Z,4.60
2023-01-12T20:08:10.273Z,4.60
2023-01-12T20:10:38.357Z,4.58
2023-01-12T20:13:06.886Z,4.55
2023-01-12T20:15:37.314Z,4.52
2023-01-12T20:18:07.083Z,4.49
2023-01-12T20:20:36.621Z,4.45
2023-01-12T20:23:04.561Z,4.43
2023-01-12T20:25:32.659Z,4.40
2023-01-12T20:28:00.942Z,4.39
2023-01-12T20:30:37.959Z,4.39
2023-01-12T20:33:06.792Z,4.40
2023-01-12T20:35:35.394Z,4.40
2023-01-12T20:38:04.046Z,4.41
2023-01-12T20:41:22.592Z,4.39
2023-01-12T20:43:50.902Z,4.37
2023-01-12T20:46:18.970Z,4.35
2023-01-12T20:48:46.905Z,4.32
2023-01-12T20:51:16.224Z,4.29
2023-01-12T20:53:44.327Z,4.26
2023-01-12T20:56:12.289Z,4.22
2023-01-12T20:58:40.245Z,4.21
2023-01-12T21:01:10.013Z,4.21
2023-01-12T21:03:38.289Z,4.22
2023-01-12T21:06:10.378Z,4.24
2023-01-12T21:08:39.229Z,4.26
2023-01-12T21:11:07.105Z,4.27
2023-01-12T21:13:35.147Z,4.29
2023-01-12T21:16:04.561Z,4.31
2023-01-12T21:18:32.946Z,4.31
2023-01-12T21:21:01.288Z,4.32
2023-01-12T21:23:29.523Z,4.32
2023-01-12T21:25:57.617Z,4.33
2023-01-12T21:28:25.730Z,4.33
2023-01-12T21:30:53.889Z,4.36
2023-01-12T21:33:21.834Z,4.38
2023-01-12T21:35:59.253Z,4.40
2023-01-12T21:38:27.661Z,4.42
2023-01-12T21:40:55.695Z,4.43
2023-01-12T21:43:23.785Z,4.44
2023-01-12T21:45:53.385Z,4.44
2023-01-12T21:48:22.560Z,4.45
2023-01-12T21:50:50.527Z,4.46
2023-01-12T21:53:21.133Z,4.48
2023-01-12T21:55:53.957Z,4.51
2023-01-12T21:58:23.112Z,4.53
2023-01-12T22:00:51.308Z,4.55
2023-01-12T22:03:20.127Z,4.56
2023-01-12T22:05:49.503Z,4.57
2023-01-12T22:08:17.411Z,4.57
2023-01-12T22:10:45.518Z,4.57
2023-01-12T22:13:17.384Z,4.57
2023-01-12T22:15:48.539Z,4.57
2023-01-12T22:18:16.861Z,4.57
2023-01-12T22:20:44.827Z,4.57
2023-01-12T22:23:13.374Z,4.58
2023-01-12T22:25:44.021Z,4.59
2023-01-12T22:28:12.427Z,4.59
2023-01-12T22:30:40.439Z,4.60
2023-01-12T22:33:10.961Z,4.59
2023-01-12T22:35:38.904Z,4.58
2023-01-12T22:38:06.949Z,4.57
2023-01-12T22:40:35.078Z,4.56
2023-01-12T22:43:22.025Z,4.56
2023-01-12T22:45:50.753Z,4.55
2023-01-12T22:48:19.100Z,4.54
2023-01-12T22:50:48.278Z,4.53
2023-01-12T22:53:16.426Z,4.54
2023-01-12T22:55:44.506Z,4.55
2023-01-12T22:58:12.540Z,4.56
2023-01-12T23:00:41.661Z,4.57
2023-01-12T23:03:10.993Z,4.60
2023-01-12T23:05:50.089Z,4.62
2023-01-12T23:08:18.441Z,4.64
2023-01-12T23:10:46.421Z,4.64
2023-01-12T23:13:19.994Z,4.64
2023-01-12T23:15:54.237Z,4.63
2023-01-12T23:18:25.887Z,4.62
2023-01-12T23:20:54.515Z,4.62
2023-01-12T23:23:22.631Z,4.63
2023-01-12T23:25:50.668Z,4.64
2023-01-12T23:28:18.898Z,4.66
2023-01-12T23:30:46.957Z,4.69
2023-01-12T23:33:14.898Z,4.70
2023-01-12T23:35:44.366Z,4.72
2023-01-12T23:38:15.052Z,4.73
2023-01-12T23:40:43.265Z,4.74
2023-01-12T23:43:11.557Z,4.74
2023-01-12T23:45:39.520Z,4.76
2023-01-12T23:48:07.959Z,4.77
2023-01-12T23:50:36.395Z,4.79
2023-01-12T23:53:04.697Z,4.81
2023-01-12T23:55:32.812Z,4.84
2023-01-12T23:58:02.353Z,4.87
